createdAt,value
2018-09-06T00:01:01.225Z,20.94
2018-09-06T00:03:30.382Z,20.92
2018-09-06T00:05:59.569Z,20.89
2018-09-06T00:08:28.677Z,20.87
2018-09-06T00:10:57.802Z,20.85
2018-09-06T00:13:26.880Z,20.85
2018-09-06T00:15:56.213Z,20.84
2018-09-06T00:18:25.429Z,20.82
2018-09-06T00:20:54.435Z,20.80
2018-09-06T00:23:24.333Z,20.80
2018-09-06T00:25:53.684Z,20.78
2018-09-06T00:28:22.860Z,20.78
2018-09-06T00:30:51.990Z,20.77
2018-09-06T00:33:21.691Z,20.76
2018-09-06T00:35:51.400Z,20.74
2018-09-06T00:38:21.068Z,20.73
2018-09-06T00:40:50.388Z,20.71
2018-09-06T00:43:19.588Z,20.70
2018-09-06T00:45:48.894Z,20.69
2018-09-06T00:48:18.209Z,20.68
2018-09-06T00:50:47.682Z,20.66
2018-09-06T00:53:16.716Z,20.63
2018-09-06T00:55:46.038Z,20.61
2018-09-06T00:58:15.247Z,20.58
2018-09-06T01:00:44.649Z,20.56
2018-09-06T01:03:14.186Z,20.54
2018-09-06T01:05:43.255Z,20.51
2018-09-06T01:08:12.889Z,20.49
2018-09-06T01:10:42.056Z,20.45
2018-09-06T01:13:11.152Z,20.44
2018-09-06T01:15:40.652Z,20.43
2018-09-06T01:18:09.895Z,20.42
2018-09-06T01:20:38.949Z,20.39
2018-09-06T01:23:08.223Z,20.38
2018-09-06T01:25:42.430Z,20.35
2018-09-06T01:28:11.610Z,20.35
2018-09-06T01:30:40.794Z,20.34
2018-09-06T01:33:09.991Z,20.32
2018-09-06T01:35:43.083Z,20.31
2018-09-06T01:38:12.044Z,20.29
2018-09-06T01:40:41.084Z,20.27
2018-09-06T01:43:10.288Z,20.25
2018-09-06T01:45:39.421Z,20.22
2018-09-06T01:48:09.084Z,20.22
2018-09-06T01:50:38.844Z,20.19
2018-09-06T01:53:08.160Z,20.20
2018-09-06T01:55:37.171Z,20.18
2018-09-06T01:58:06.267Z,20.18
2018-09-06T02:00:35.636Z,20.19
2018-09-06T02:03:04.728Z,20.18
2018-09-06T02:05:37.531Z,20.16
2018-09-06T02:08:07.999Z,20.15
2018-09-06T02:10:37.289Z,20.14
2018-09-06T02:13:07.398Z,20.14
2018-09-06T02:15:36.621Z,20.12
2018-09-06T02:18:05.970Z,20.11
2018-09-06T02:20:35.292Z,20.11
2018-09-06T02:23:04.941Z,20.10
2018-09-06T02:25:34.223Z,20.06
2018-09-06T02:28:04.552Z,20.05
2018-09-06T02:30:33.571Z,20.04
2018-09-06T02:33:02.795Z,20.03
2018-09-06T02:35:31.984Z,20.01
2018-09-06T02:38:01.151Z,19.99
2018-09-06T02:40:35.365Z,19.97
2018-09-06T02:43:04.703Z,19.95
2018-09-06T02:45:34.037Z,19.92
2018-09-06T02:48:03.255Z,19.92
2018-09-06T02:50:37.753Z,19.92
2018-09-06T02:53:07.464Z,19.92
2018-09-06T02:55:36.587Z,19.91
2018-09-06T02:58:06.243Z,19.91
2018-09-06T03:00:36.841Z,19.91
2018-09-06T03:03:05.841Z,19.88
2018-09-06T03:05:34.799Z,19.87
2018-09-06T03:08:03.742Z,19.86
2018-09-06T03:10:42.183Z,19.84
2018-09-06T03:13:11.412Z,19.83
2018-09-06T03:15:40.732Z,19.82
2018-09-06T03:18:09.689Z,19.81
2018-09-06T03:20:38.649Z,19.80
2018-09-06T03:23:07.800Z,19.80
2018-09-06T03:25:37.178Z,19.74
2018-09-06T03:28:09.183Z,19.81
2018-09-06T03:30:38.138Z,19.83
2018-09-06T03:33:07.248Z,19.87
2018-09-06T03:35:36.461Z,19.88
2018-09-06T03:38:05.640Z,19.89
2018-09-06T03:40:35.039Z,19.89
2018-09-06T03:43:04.101Z,19.89
2018-09-06T03:45:33.190Z,19.89
2018-09-06T03:48:02.266Z,19.91
2018-09-06T03:50:31.424Z,19.91
2018-09-06T03:53:00.655Z,19.90
2018-09-06T03:55:30.198Z,19.89
2018-09-06T03:57:59.655Z,19.89
2018-09-06T04:00:28.707Z,19.88
2018-09-06T04:02:58.098Z,19.88
2018-09-06T04:05:27.488Z,19.87
2018-09-06T04:07:56.832Z,19.87
2018-09-06T04:10:25.975Z,19.86
2018-09-06T04:12:55.197Z,19.85
2018-09-06T04:15:24.532Z,19.83
2018-09-06T04:17:53.651Z,19.81
2018-09-06T04:20:22.820Z,19.81
2018-09-06T04:22:52.804Z,19.79
2018-09-06T04:25:22.116Z,19.76
2018-09-06T04:27:51.378Z,19.75
2018-09-06T04:30:20.455Z,19.75
2018-09-06T04:32:49.800Z,19.74
2018-09-06T04:35:19.113Z,19.75
2018-09-06T04:37:48.394Z,19.76
2018-09-06T04:40:17.602Z,19.76
2018-09-06T04:42:47.051Z,19.77
2018-09-06T04:45:16.093Z,19.75
2018-09-06T04:47:45.012Z,19.78
2018-09-06T04:50:14.514Z,19.79
2018-09-06T04:52:43.651Z,19.79
2018-09-06T04:55:13.240Z,19.80
2018-09-06T04:57:43.368Z,19.82
2018-09-06T05:00:12.336Z,19.84
2018-09-06T05:02:41.381Z,19.85
2018-09-06T05:05:10.567Z,19.88
2018-09-06T05:07:39.640Z,19.91
2018-09-06T05:10:09.122Z,19.92
2018-09-06T05:12:38.235Z,19.94
2018-09-06T05:15:07.269Z,19.96
2018-09-06T05:17:37.954Z,20.01
2018-09-06T05:20:07.353Z,20.03
2018-09-06T05:22:36.653Z,20.05
2018-09-06T05:25:06.124Z,20.08
2018-09-06T05:27:35.131Z,20.12
2018-09-06T05:30:04.245Z,20.15
2018-09-06T05:32:33.230Z,20.19
2018-09-06T05:35:02.136Z,20.23
2018-09-06T05:37:31.514Z,20.28
2018-09-06T05:40:00.829Z,20.35
2018-09-06T05:42:30.084Z,20.39
2018-09-06T05:44:59.257Z,20.43
2018-09-06T05:47:28.597Z,20.48
2018-09-06T05:49:58.586Z,20.53
2018-09-06T05:52:27.847Z,20.57
2018-09-06T05:54:57.535Z,20.61
2018-09-06T05:57:26.765Z,20.67
2018-09-06T05:59:55.782Z,20.72
2018-09-06T06:02:24.987Z,20.76
2018-09-06T06:04:54.572Z,20.82
2018-09-06T06:07:29.323Z,20.86
2018-09-06T06:09:58.890Z,20.92
2018-09-06T06:12:28.882Z,20.98
2018-09-06T06:14:58.264Z,21.05
2018-09-06T06:17:27.721Z,21.10
2018-09-06T06:19:56.901Z,21.15
2018-09-06T06:22:26.399Z,21.16
2018-09-06T06:24:55.579Z,21.14
2018-09-06T06:27:24.743Z,21.23
2018-09-06T06:29:54.252Z,21.26
2018-09-06T06:32:23.660Z,21.31
2018-09-06T06:34:53.789Z,21.36
2018-09-06T06:37:23.291Z,21.41
2018-09-06T06:39:52.376Z,21.44
2018-09-06T06:42:22.371Z,21.43
2018-09-06T06:44:51.594Z,21.44
2018-09-06T06:47:21.581Z,21.47
2018-09-06T06:49:50.680Z,21.49
2018-09-06T06:52:19.937Z,21.52
2018-09-06T06:54:49.175Z,21.55
2018-09-06T06:57:18.221Z,21.57
2018-09-06T06:59:47.465Z,21.59
2018-09-06T07:02:16.428Z,21.64
2018-09-06T07:04:45.599Z,21.68
2018-09-06T07:07:15.305Z,21.71
2018-09-06T07:09:44.567Z,21.75
2018-09-06T07:12:13.588Z,21.77
2018-09-06T07:14:42.680Z,21.77
2018-09-06T07:17:12.979Z,21.79
2018-09-06T07:19:42.450Z,21.78
2018-09-06T07:22:12.519Z,21.76
2018-09-06T07:24:41.581Z,21.78
2018-09-06T07:27:10.578Z,21.81
2018-09-06T07:29:40.025Z,21.84
2018-09-06T07:32:09.982Z,21.86
2018-09-06T07:34:39.122Z,21.87
2018-09-06T07:37:08.140Z,21.88
2018-09-06T07:39:37.502Z,21.88
2018-09-06T07:42:06.424Z,21.88
2018-09-06T07:44:35.461Z,21.90
2018-09-06T07:47:05.373Z,21.90
2018-09-06T07:49:34.709Z,21.90
2018-09-06T07:52:03.913Z,21.93
2018-09-06T07:54:33.214Z,21.95
2018-09-06T07:57:03.763Z,21.99
2018-09-06T07:59:33.195Z,22.04
2018-09-06T08:02:02.695Z,22.10
2018-09-06T08:04:31.978Z,22.16
2018-09-06T08:07:00.991Z,22.21
2018-09-06T08:09:30.980Z,22.23
2018-09-06T08:11:59.984Z,22.29
2018-09-06T08:14:29.381Z,22.33
2018-09-06T08:16:59.165Z,22.40
2018-09-06T08:19:28.420Z,22.48
2018-09-06T08:21:57.614Z,22.52
2018-09-06T08:24:27.003Z,22.58
2018-09-06T08:26:56.487Z,22.66
2018-09-06T08:29:25.520Z,22.68
2018-09-06T08:31:54.797Z,22.66
2018-09-06T08:34:24.133Z,22.64
2018-09-06T08:36:54.269Z,22.65
2018-09-06T08:39:23.635Z,22.67
2018-09-06T08:41:53.495Z,22.68
2018-09-06T08:44:22.732Z,22.73
2018-09-06T08:46:52.107Z,22.80
2018-09-06T08:49:21.693Z,22.85
2018-09-06T08:51:50.746Z,22.92
2018-09-06T08:54:20.114Z,22.98
2018-09-06T08:56:49.361Z,23.03
2018-09-06T08:59:18.660Z,23.07
2018-09-06T09:01:47.913Z,23.15
2018-09-06T09:04:16.938Z,23.24
2018-09-06T09:06:45.995Z,23.33
2018-09-06T09:09:16.053Z,23.41
2018-09-06T09:11:45.367Z,23.49
2018-09-06T09:14:14.655Z,23.58
2018-09-06T09:16:43.859Z,23.66
2018-09-06T09:19:12.963Z,23.74
2018-09-06T09:21:42.205Z,23.81
2018-09-06T09:24:11.487Z,23.88
2018-09-06T09:26:41.179Z,23.95
2018-09-06T09:29:10.365Z,24.00
2018-09-06T09:31:39.403Z,24.07
2018-09-06T09:34:08.983Z,24.11
2018-09-06T09:36:38.236Z,24.22
2018-09-06T09:39:09.912Z,24.29
2018-09-06T09:41:39.151Z,24.38
2018-09-06T09:44:08.218Z,24.48
2018-09-06T09:49:05.450Z,24.68
2018-09-06T09:51:34.332Z,24.76
2018-09-06T09:54:03.470Z,24.86
2018-09-06T09:56:32.453Z,24.89
2018-09-06T09:59:02.461Z,24.92
2018-09-06T10:01:36.604Z,24.94
2018-09-06T10:04:10.674Z,24.98
2018-09-06T10:06:44.930Z,25.07
2018-09-06T10:09:19.266Z,25.14
2018-09-06T10:11:48.768Z,25.26
2018-09-06T10:14:17.783Z,25.37
2018-09-06T10:16:47.482Z,25.47
2018-09-06T10:19:17.140Z,25.56
2018-09-06T10:21:46.973Z,25.64
2018-09-06T10:24:16.608Z,25.72
2018-09-06T10:26:45.910Z,25.77
2018-09-06T10:29:15.280Z,25.80
2018-09-06T10:31:44.471Z,25.86
2018-09-06T10:34:14.014Z,25.93
2018-09-06T10:36:43.314Z,25.95
2018-09-06T10:39:12.377Z,25.94
2018-09-06T10:41:42.480Z,26.01
2018-09-06T10:44:11.679Z,26.09
2018-09-06T10:46:40.876Z,26.18
2018-09-06T10:49:09.898Z,26.23
2018-09-06T10:51:39.339Z,26.29
2018-09-06T10:54:08.801Z,26.32
2018-09-06T10:56:37.917Z,26.38
2018-09-06T10:59:07.482Z,26.37
2018-09-06T11:01:36.608Z,26.31
2018-09-06T11:04:05.656Z,26.30
2018-09-06T11:06:34.668Z,26.30
2018-09-06T11:09:03.993Z,26.33
2018-09-06T11:11:33.352Z,26.44
2018-09-06T11:14:02.371Z,26.55
2018-09-06T11:16:31.782Z,26.63
2018-09-06T11:19:00.978Z,26.68
2018-09-06T11:21:30.212Z,26.72
2018-09-06T11:24:00.422Z,26.78
2018-09-06T11:26:29.683Z,26.85
2018-09-06T11:28:59.099Z,26.93
2018-09-06T11:31:28.075Z,27.01
2018-09-06T11:33:57.466Z,27.03
2018-09-06T11:36:26.526Z,26.99
2018-09-06T11:38:55.787Z,27.01
2018-09-06T11:41:24.939Z,27.10
2018-09-06T11:43:54.013Z,27.15
2018-09-06T11:46:23.304Z,27.17
2018-09-06T11:48:52.574Z,27.16
2018-09-06T11:51:21.709Z,27.13
2018-09-06T11:53:50.966Z,27.08
2018-09-06T11:56:20.063Z,27.09
2018-09-06T11:58:50.170Z,27.14
2018-09-06T12:01:19.652Z,27.17
2018-09-06T12:03:49.148Z,27.15
2018-09-06T12:06:18.900Z,27.20
2018-09-06T12:08:48.559Z,27.28
2018-09-06T12:11:17.655Z,27.33
2018-09-06T12:13:46.616Z,27.34
2018-09-06T12:16:15.732Z,27.26
2018-09-06T12:18:44.828Z,27.23
2018-09-06T12:21:14.416Z,27.18
2018-09-06T12:23:44.651Z,27.19
2018-09-06T12:26:13.946Z,27.25
2018-09-06T12:28:43.002Z,27.33
2018-09-06T12:31:15.272Z,27.39
2018-09-06T12:33:44.596Z,27.41
2018-09-06T12:36:13.910Z,27.40
2018-09-06T12:38:43.086Z,27.42
2018-09-06T12:41:12.963Z,27.42
2018-09-06T12:43:42.967Z,27.44
2018-09-06T12:46:13.045Z,27.47
2018-09-06T12:48:42.416Z,27.47
2018-09-06T12:51:13.504Z,27.47
2018-09-06T12:53:42.489Z,27.43
2018-09-06T12:56:11.826Z,27.42
2018-09-06T12:58:40.923Z,27.46
2018-09-06T13:01:12.283Z,27.53
2018-09-06T13:03:41.820Z,27.59
2018-09-06T13:06:10.900Z,27.63
2018-09-06T13:08:40.529Z,27.64
2018-09-06T13:11:09.761Z,27.61
2018-09-06T13:13:38.872Z,27.58
2018-09-06T13:16:08.673Z,27.56
2018-09-06T13:18:38.367Z,27.52
2018-09-06T13:21:07.585Z,27.49
2018-09-06T13:23:36.693Z,27.45
2018-09-06T13:26:06.356Z,27.41
2018-09-06T13:28:35.462Z,27.42
2018-09-06T13:31:04.541Z,27.43
2018-09-06T13:33:34.704Z,27.45
2018-09-06T13:36:04.111Z,27.49
2018-09-06T13:38:33.073Z,27.55
2018-09-06T13:41:02.723Z,27.58
2018-09-06T13:43:31.903Z,27.59
2018-09-06T13:46:01.229Z,27.60
2018-09-06T13:48:30.437Z,27.61
2018-09-06T13:51:00.323Z,27.61
2018-09-06T13:53:29.389Z,27.57
2018-09-06T13:55:58.469Z,27.55
2018-09-06T13:58:28.074Z,27.56
2018-09-06T14:00:57.500Z,27.58
2018-09-06T14:03:26.833Z,27.63
2018-09-06T14:05:56.483Z,27.67
2018-09-06T14:08:26.069Z,27.73
2018-09-06T14:10:55.365Z,27.78
2018-09-06T14:13:24.543Z,27.82
2018-09-06T14:15:53.480Z,27.84
2018-09-06T14:18:22.708Z,27.89
2018-09-06T14:20:51.774Z,27.96
2018-09-06T14:23:21.254Z,28.02
2018-09-06T14:25:50.505Z,28.08
2018-09-06T14:28:19.706Z,28.07
2018-09-06T14:30:48.853Z,28.06
2018-09-06T14:33:18.786Z,28.03
2018-09-06T14:35:47.883Z,28.01
2018-09-06T14:38:16.956Z,28.06
2018-09-06T14:40:46.190Z,28.14
2018-09-06T14:43:15.636Z,28.25
2018-09-06T14:45:44.812Z,28.33
2018-09-06T14:48:14.233Z,28.36
2018-09-06T14:50:43.544Z,28.36
2018-09-06T14:53:13.204Z,28.38
2018-09-06T14:55:42.291Z,28.41
2018-09-06T14:58:11.435Z,28.46
2018-09-06T15:00:41.048Z,28.50
2018-09-06T15:03:10.445Z,28.53
2018-09-06T15:05:39.742Z,28.56
2018-09-06T15:08:09.087Z,28.57
2018-09-06T15:10:38.398Z,28.59
2018-09-06T15:13:07.876Z,28.62
2018-09-06T15:15:36.839Z,28.67
2018-09-06T15:18:06.125Z,28.76
2018-09-06T15:20:35.343Z,28.80
2018-09-06T15:23:04.572Z,28.81
2018-09-06T15:25:33.701Z,28.85
2018-09-06T15:28:02.748Z,28.85
2018-09-06T15:30:32.234Z,28.87
2018-09-06T15:33:01.471Z,28.90
2018-09-06T15:35:30.813Z,28.91
2018-09-06T15:38:00.233Z,28.88
2018-09-06T15:40:29.373Z,28.84
2018-09-06T15:42:58.434Z,28.79
2018-09-06T15:45:28.335Z,28.78
2018-09-06T15:47:57.651Z,28.78
2018-09-06T15:50:26.967Z,28.76
2018-09-06T15:52:55.983Z,28.69
2018-09-06T15:55:25.278Z,28.66
2018-09-06T15:57:54.256Z,28.66
2018-09-06T16:00:23.332Z,28.66
2018-09-06T16:02:52.852Z,28.66
2018-09-06T16:05:21.865Z,28.69
2018-09-06T16:07:51.112Z,28.69
2018-09-06T16:10:20.561Z,28.67
2018-09-06T16:12:49.971Z,28.68
2018-09-06T16:15:19.288Z,28.68
2018-09-06T16:17:48.299Z,28.65
2018-09-06T16:20:17.828Z,28.63
2018-09-06T16:22:47.239Z,28.54
2018-09-06T16:25:16.568Z,28.47
2018-09-06T16:27:46.046Z,28.41
2018-09-06T16:30:15.510Z,28.39
2018-09-06T16:32:45.198Z,28.40
2018-09-06T16:35:17.552Z,28.47
2018-09-06T16:37:46.688Z,28.52
2018-09-06T16:40:15.924Z,28.63
2018-09-06T16:42:45.303Z,28.73
2018-09-06T16:45:14.512Z,28.80
2018-09-06T16:47:43.722Z,28.85
2018-09-06T16:50:12.843Z,28.87
2018-09-06T16:52:41.855Z,28.82
2018-09-06T16:55:11.351Z,28.69
2018-09-06T16:57:41.392Z,28.58
2018-09-06T17:00:10.874Z,28.47
2018-09-06T17:02:39.995Z,28.28
2018-09-06T17:05:09.474Z,28.13
2018-09-06T17:07:38.675Z,27.97
2018-09-06T17:10:07.852Z,27.80
2018-09-06T17:12:37.650Z,27.65
2018-09-06T17:15:06.856Z,27.52
2018-09-06T17:17:36.219Z,27.39
2018-09-06T17:20:05.524Z,27.24
2018-09-06T17:22:34.631Z,27.15
2018-09-06T17:25:03.623Z,27.06
2018-09-06T17:27:33.170Z,27.00
2018-09-06T17:30:03.947Z,26.90
2018-09-06T17:32:33.318Z,26.81
2018-09-06T17:35:02.735Z,26.72
2018-09-06T17:37:32.084Z,26.63
2018-09-06T17:40:01.412Z,26.57
2018-09-06T17:42:31.759Z,26.53
2018-09-06T17:45:00.916Z,26.47
2018-09-06T17:47:30.331Z,26.42
2018-09-06T17:49:59.467Z,26.39
2018-09-06T17:52:28.556Z,26.34
2018-09-06T17:54:57.650Z,26.30
2018-09-06T17:57:26.900Z,26.26
2018-09-06T17:59:56.231Z,26.22
2018-09-06T18:02:25.878Z,26.18
2018-09-06T18:04:55.400Z,26.14
2018-09-06T18:07:24.802Z,26.10
2018-09-06T18:09:53.896Z,26.05
2018-09-06T18:12:22.953Z,26.01
2018-09-06T18:14:53.149Z,25.98
2018-09-06T18:17:22.229Z,25.94
2018-09-06T18:19:51.690Z,25.90
2018-09-06T18:22:20.885Z,25.87
2018-09-06T18:24:49.984Z,25.82
2018-09-06T18:27:19.365Z,25.80
2018-09-06T18:29:48.539Z,25.76
2018-09-06T18:32:17.980Z,25.73
2018-09-06T18:34:47.080Z,25.69
2018-09-06T18:37:16.342Z,25.65
2018-09-06T18:39:45.513Z,25.63
2018-09-06T18:42:14.735Z,25.59
2018-09-06T18:44:44.063Z,25.56
2018-09-06T18:47:13.268Z,25.53
2018-09-06T18:49:42.627Z,25.50
2018-09-06T18:52:11.735Z,25.47
2018-09-06T18:54:40.954Z,25.44
2018-09-06T18:57:10.495Z,25.39
2018-09-06T18:59:40.071Z,25.35
2018-09-06T19:02:09.776Z,25.30
2018-09-06T19:04:38.967Z,25.27
2018-09-06T19:07:08.092Z,25.21
2018-09-06T19:09:37.601Z,25.16
2018-09-06T19:12:07.384Z,25.11
2018-09-06T19:14:36.645Z,25.06
2018-09-06T19:17:06.032Z,25.01
2018-09-06T19:19:35.784Z,24.96
2018-09-06T19:22:05.141Z,24.90
2018-09-06T19:24:34.458Z,24.84
2018-09-06T19:27:03.717Z,24.78
2018-09-06T19:29:32.803Z,24.72
2018-09-06T19:32:02.117Z,24.66
2018-09-06T19:34:31.618Z,24.61
2018-09-06T19:37:01.285Z,24.52
2018-09-06T19:39:30.700Z,24.44
2018-09-06T19:41:59.802Z,24.39
2018-09-06T19:44:29.158Z,24.34
2018-09-06T19:46:58.410Z,24.28
2018-09-06T19:49:27.873Z,24.23
2018-09-06T19:51:56.919Z,24.17
2018-09-06T19:54:26.039Z,24.11
2018-09-06T19:56:55.518Z,24.06
2018-09-06T19:59:24.555Z,24.00
2018-09-06T20:01:53.937Z,23.96
2018-09-06T20:04:23.264Z,23.90
2018-09-06T20:06:52.467Z,23.84
2018-09-06T20:09:21.655Z,23.80
2018-09-06T20:11:50.786Z,23.75
2018-09-06T20:14:20.593Z,23.70
2018-09-06T20:16:50.170Z,23.66
2018-09-06T20:19:19.424Z,23.61
2018-09-06T20:21:48.708Z,23.60
2018-09-06T20:24:17.798Z,23.57
2018-09-06T20:26:46.946Z,23.55
2018-09-06T20:29:16.492Z,23.49
2018-09-06T20:31:45.570Z,23.46
2018-09-06T20:34:15.106Z,23.41
2018-09-06T20:36:44.373Z,23.36
2018-09-06T20:39:13.380Z,23.31
2018-09-06T20:41:42.608Z,23.24
2018-09-06T20:44:12.083Z,23.17
2018-09-06T20:46:41.305Z,23.14
2018-09-06T20:49:10.786Z,23.09
2018-09-06T20:51:39.854Z,23.06
2018-09-06T20:54:09.127Z,23.03
2018-09-06T20:56:38.250Z,22.97
2018-09-06T20:59:07.626Z,22.96
2018-09-06T21:01:36.875Z,22.92
2018-09-06T21:04:05.942Z,22.88
2018-09-06T21:06:35.360Z,22.85
2018-09-06T21:09:05.738Z,22.83
2018-09-06T21:11:34.769Z,22.80
2018-09-06T21:14:03.825Z,22.78
2018-09-06T21:16:33.237Z,22.76
2018-09-06T21:19:02.606Z,22.73
2018-09-06T21:21:31.806Z,22.71
2018-09-06T21:24:01.587Z,22.70
2018-09-06T21:26:30.955Z,22.67
2018-09-06T21:29:00.015Z,22.65
2018-09-06T21:31:29.961Z,22.64
2018-09-06T21:33:59.908Z,22.63
2018-09-06T21:36:29.027Z,22.60
2018-09-06T21:38:58.165Z,22.56
2018-09-06T21:41:27.473Z,22.55
2018-09-06T21:43:56.856Z,22.53
2018-09-06T21:46:26.709Z,22.52
2018-09-06T21:48:55.715Z,22.51
2018-09-06T21:51:25.001Z,22.49
2018-09-06T21:53:54.114Z,22.46
2018-09-06T21:56:23.270Z,22.43
2018-09-06T21:58:52.398Z,22.40
2018-09-06T22:01:21.514Z,22.37
2018-09-06T22:03:55.761Z,22.33
2018-09-06T22:06:25.190Z,22.30
2018-09-06T22:08:54.281Z,22.26
2018-09-06T22:11:23.794Z,22.23
2018-09-06T22:13:53.373Z,22.19
2018-09-06T22:16:22.922Z,22.14
2018-09-06T22:18:51.916Z,22.12
2018-09-06T22:21:21.210Z,22.08
2018-09-06T22:23:50.729Z,22.06
2018-09-06T22:26:19.973Z,22.03
2018-09-06T22:28:49.169Z,22.00
2018-09-06T22:31:18.561Z,21.97
2018-09-06T22:33:47.778Z,21.96
2018-09-06T22:36:16.719Z,21.93
2018-09-06T22:38:45.788Z,21.91
2018-09-06T22:41:14.834Z,21.86
2018-09-06T22:43:44.681Z,21.83
2018-09-06T22:46:14.214Z,21.80
2018-09-06T22:48:43.643Z,21.77
2018-09-06T22:51:13.625Z,21.76
2018-09-06T22:53:42.624Z,21.75
2018-09-06T22:56:12.251Z,21.73
2018-09-06T22:58:41.659Z,21.71
2018-09-06T23:01:10.850Z,21.70
2018-09-06T23:03:41.826Z,21.67
2018-09-06T23:06:10.995Z,21.65
2018-09-06T23:08:40.213Z,21.62
2018-09-06T23:11:09.452Z,21.53
2018-09-06T23:13:38.636Z,21.57
2018-09-06T23:16:07.862Z,21.54
2018-09-06T23:18:36.978Z,21.53
2018-09-06T23:21:06.302Z,21.51
2018-09-06T23:23:35.966Z,21.46
2018-09-06T23:26:05.355Z,21.45
2018-09-06T23:28:34.522Z,21.43
2018-09-06T23:31:03.785Z,21.41
2018-09-06T23:33:33.083Z,21.39
2018-09-06T23:36:02.374Z,21.38
2018-09-06T23:38:32.084Z,21.36
2018-09-06T23:41:01.317Z,21.34
2018-09-06T23:43:31.691Z,21.32
2018-09-06T23:46:01.039Z,21.29
2018-09-06T23:48:30.655Z,21.27
2018-09-06T23:51:00.641Z,21.26
2018-09-06T23:53:29.702Z,21.25
2018-09-06T23:55:58.824Z,21.23
2018-09-06T23:58:28.311Z,21.22
